sensor_id;sensor_type;location;lat;lon;timestamp;pressure;altitude;pressure_sealevel;temperature;humidity
48027;BME280;50714;49.208;5.364;2022-09-20T00:04:47;100110.50;;;10.74;54.69
48027;BME280;50714;49.208;5.364;2022-09-20T00:14:48;100109.34;;;10.62;54.66
48027;BME280;50714;49.208;5.364;2022-09-20T00:24:48;100108.41;;;10.54;54.98
48027;BME280;50714;49.208;5.364;2022-09-20T00:34:49;100106.34;;;10.42;54.75
48027;BME280;50714;49.208;5.364;2022-09-20T00:45:22;100112.97;;;10.24;55.93
48027;BME280;50714;49.208;5.364;2022-09-20T00:55:24;100098.50;;;10.17;55.55
48027;BME280;50714;49.208;5.364;2022-09-20T01:05:25;100101.81;;;10.28;55.55
48027;BME280;50714;49.208;5.364;2022-09-20T01:15:28;100092.69;;;10.14;55.42
48027;BME280;50714;49.208;5.364;2022-09-20T01:35:40;100103.31;;;9.78;55.83
48027;BME280;50714;49.208;5.364;2022-09-20T01:45:47;100105.63;;;9.66;56.20
48027;BME280;50714;49.208;5.364;2022-09-20T01:56:16;100109.41;;;9.57;57.88
48027;BME280;50714;49.208;5.364;2022-09-20T02:16:44;100112.66;;;9.52;57.21
48027;BME280;50714;49.208;5.364;2022-09-20T02:37:38;100096.81;;;9.35;58.02
48027;BME280;50714;49.208;5.364;2022-09-20T02:47:44;100097.59;;;9.20;56.23
48027;BME280;50714;49.208;5.364;2022-09-20T03:59:55;100107.44;;;8.82;57.97
48027;BME280;50714;49.208;5.364;2022-09-20T04:20:39;100109.63;;;9.10;57.69
48027;BME280;50714;49.208;5.364;2022-09-20T04:30:43;100117.66;;;9.18;57.63
48027;BME280;50714;49.208;5.364;2022-09-20T04:41:19;100099.72;;;9.25;59.97
48027;BME280;50714;49.208;5.364;2022-09-20T05:43:30;100133.84;;;9.33;62.40
48027;BME280;50714;49.208;5.364;2022-09-20T06:03:56;100153.03;;;9.75;60.79
48027;BME280;50714;49.208;5.364;2022-09-20T06:34:46;100188.41;;;9.95;59.66
48027;BME280;50714;49.208;5.364;2022-09-20T06:44:47;100191.22;;;10.02;59.70
48027;BME280;50714;49.208;5.364;2022-09-20T06:54:50;100194.94;;;10.38;59.79
48027;BME280;50714;49.208;5.364;2022-09-20T07:04:53;100186.53;;;11.07;59.98
48027;BME280;50714;49.208;5.364;2022-09-20T07:14:54;100193.78;;;11.85;59.21
48027;BME280;50714;49.208;5.364;2022-09-20T07:24:54;100190.22;;;12.34;58.49
48027;BME280;50714;49.208;5.364;2022-09-20T07:34:55;100185.50;;;13.24;59.16
48027;BME280;50714;49.208;5.364;2022-09-20T07:45:15;100181.69;;;15.42;58.48
48027;BME280;50714;49.208;5.364;2022-09-20T07:55:17;100189.34;;;19.19;55.10
48027;BME280;50714;49.208;5.364;2022-09-20T08:05:17;100205.53;;;22.88;50.01
48027;BME280;50714;49.208;5.364;2022-09-20T08:15:18;100209.16;;;22.56;47.34
48027;BME280;50714;49.208;5.364;2022-09-20T08:25:18;100215.00;;;23.95;46.48
48027;BME280;50714;49.208;5.364;2022-09-20T08:35:18;100213.66;;;24.07;44.18
48027;BME280;50714;49.208;5.364;2022-09-20T08:45:24;100215.00;;;23.85;43.91
48027;BME280;50714;49.208;5.364;2022-09-20T08:55:27;100228.22;;;24.84;43.71
48027;BME280;50714;49.208;5.364;2022-09-20T09:05:37;100222.66;;;28.28;39.95
48027;BME280;50714;49.208;5.364;2022-09-20T09:15:49;100209.75;;;30.68;38.44
48027;BME280;50714;49.208;5.364;2022-09-20T09:25:53;100211.97;;;32.28;36.07
48027;BME280;50714;49.208;5.364;2022-09-20T09:36:06;100202.50;;;33.14;32.17
48027;BME280;50714;49.208;5.364;2022-09-20T09:46:21;100203.06;;;33.87;27.38
48027;BME280;50714;49.208;5.364;2022-09-20T09:57:18;100186.31;;;31.09;27.28
48027;BME280;50714;49.208;5.364;2022-09-20T10:07:09;100188.97;;;29.85;29.59
48027;BME280;50714;49.208;5.364;2022-09-20T10:17:26;100180.56;;;27.45;31.43
48027;BME280;50714;49.208;5.364;2022-09-20T11:08:13;100166.41;;;34.13;26.42
48027;BME280;50714;49.208;5.364;2022-09-20T12:00:36;100159.94;;;23.17;32.32
48027;BME280;50714;49.208;5.364;2022-09-20T12:10:38;100158.97;;;25.40;31.81
48027;BME280;50714;49.208;5.364;2022-09-20T12:30:43;100136.69;;;25.26;31.15
48027;BME280;50714;49.208;5.364;2022-09-20T12:41:09;100125.13;;;24.04;31.12
48027;BME280;50714;49.208;5.364;2022-09-20T13:01:35;100124.38;;;21.20;35.05
48027;BME280;50714;49.208;5.364;2022-09-20T13:31:49;100117.81;;;21.53;36.83
48027;BME280;50714;49.208;5.364;2022-09-20T13:41:50;100119.66;;;21.74;36.12
48027;BME280;50714;49.208;5.364;2022-09-20T13:51:51;100108.09;;;21.67;36.13
48027;BME280;50714;49.208;5.364;2022-09-20T14:01:53;100100.63;;;21.63;35.76
48027;BME280;50714;49.208;5.364;2022-09-20T14:11:54;100098.84;;;21.52;35.54
48027;BME280;50714;49.208;5.364;2022-09-20T14:21:55;100091.16;;;21.22;35.62
48027;BME280;50714;49.208;5.364;2022-09-20T14:31:58;100094.69;;;20.73;36.65
48027;BME280;50714;49.208;5.364;2022-09-20T14:41:59;100087.53;;;20.34;36.87
48027;BME280;50714;49.208;5.364;2022-09-20T15:02:28;100093.06;;;20.17;37.00
48027;BME280;50714;49.208;5.364;2022-09-20T15:12:29;100101.75;;;19.75;37.50
48027;BME280;50714;49.208;5.364;2022-09-20T15:22:29;100112.09;;;19.28;38.08
48027;BME280;50714;49.208;5.364;2022-09-20T15:32:31;100125.00;;;18.76;38.93
48027;BME280;50714;49.208;5.364;2022-09-20T15:42:31;100113.25;;;18.52;40.12
48027;BME280;50714;49.208;5.364;2022-09-20T15:52:36;100109.59;;;18.35;40.81
48027;BME280;50714;49.208;5.364;2022-09-20T16:02:38;100110.19;;;18.02;40.50
48027;BME280;50714;49.208;5.364;2022-09-20T16:12:39;100110.66;;;17.87;41.10
48027;BME280;50714;49.208;5.364;2022-09-20T16:22:39;100118.00;;;17.75;41.27
48027;BME280;50714;49.208;5.364;2022-09-20T16:32:40;100123.06;;;17.60;41.73
48027;BME280;50714;49.208;5.364;2022-09-20T16:42:42;100124.56;;;17.56;42.51
48027;BME280;50714;49.208;5.364;2022-09-20T16:52:43;100126.25;;;17.57;42.85
48027;BME280;50714;49.208;5.364;2022-09-20T17:02:43;100130.25;;;17.54;42.88
48027;BME280;50714;49.208;5.364;2022-09-20T17:12:44;100133.81;;;17.55;43.12
48027;BME280;50714;49.208;5.364;2022-09-20T17:22:46;100142.84;;;17.55;43.14
48027;BME280;50714;49.208;5.364;2022-09-20T17:32:48;100139.16;;;17.50;43.33
48027;BME280;50714;49.208;5.364;2022-09-20T17:42:49;100153.00;;;17.36;43.89
48027;BME280;50714;49.208;5.364;2022-09-20T17:52:50;100162.28;;;17.17;44.67
48027;BME280;50714;49.208;5.364;2022-09-20T18:02:50;100178.19;;;17.02;45.02
48027;BME280;50714;49.208;5.364;2022-09-20T18:12:51;100180.13;;;16.83;45.52
48027;BME280;50714;49.208;5.364;2022-09-20T18:22:51;100182.56;;;16.48;46.47
48027;BME280;50714;49.208;5.364;2022-09-20T18:32:52;100186.22;;;16.17;46.98
48027;BME280;50714;49.208;5.364;2022-09-20T18:42:52;100190.41;;;15.88;47.32
48027;BME280;50714;49.208;5.364;2022-09-20T18:52:54;100193.53;;;15.60;47.73
48027;BME280;50714;49.208;5.364;2022-09-20T19:03:05;100202.28;;;15.31;50.54
48027;BME280;50714;49.208;5.364;2022-09-20T19:23:54;100224.34;;;15.03;51.50
48027;BME280;50714;49.208;5.364;2022-09-20T19:34:02;100238.56;;;15.05;49.88
48027;BME280;50714;49.208;5.364;2022-09-20T19:54:31;100249.22;;;15.07;50.13
48027;BME280;50714;49.208;5.364;2022-09-20T20:04:32;100249.03;;;15.01;50.30
48027;BME280;50714;49.208;5.364;2022-09-20T20:35:51;100257.25;;;14.82;52.72
48027;BME280;50714;49.208;5.364;2022-09-20T20:45:53;100258.50;;;14.79;51.72
48027;BME280;50714;49.208;5.364;2022-09-20T21:06:06;100263.50;;;14.82;52.03
48027;BME280;50714;49.208;5.364;2022-09-20T21:16:15;100262.88;;;14.80;52.81
48027;BME280;50714;49.208;5.364;2022-09-20T21:26:17;100270.41;;;14.78;52.56
48027;BME280;50714;49.208;5.364;2022-09-20T21:36:21;100266.06;;;14.57;52.58
48027;BME280;50714;49.208;5.364;2022-09-20T21:56:33;100274.78;;;14.13;56.48
48027;BME280;50714;49.208;5.364;2022-09-20T22:06:36;100281.44;;;13.97;53.57
48027;BME280;50714;49.208;5.364;2022-09-20T22:16:39;100275.38;;;13.95;53.72
48027;BME280;50714;49.208;5.364;2022-09-20T22:26:45;100270.56;;;13.84;55.45
48027;BME280;50714;49.208;5.364;2022-09-20T22:36:46;100265.72;;;13.73;54.57
48027;BME280;50714;49.208;5.364;2022-09-20T22:46:47;100267.81;;;13.64;54.96
48027;BME280;50714;49.208;5.364;2022-09-20T22:56:47;100269.22;;;13.54;55.03
48027;BME280;50714;49.208;5.364;2022-09-20T23:06:49;100281.13;;;13.46;55.44
48027;BME280;50714;49.208;5.364;2022-09-20T23:16:53;100281.72;;;13.42;55.23
48027;BME280;50714;49.208;5.364;2022-09-20T23:26:54;100284.16;;;13.30;55.65
48027;BME280;50714;49.208;5.364;2022-09-20T23:36:54;100290.94;;;13.13;55.64
48027;BME280;50714;49.208;5.364;2022-09-20T23:46:54;100276.25;;;12.94;55.95
48027;BME280;50714;49.208;5.364;2022-09-20T23:56:55;100278.59;;;12.76;55.72
